Time;durP1;ratioP1;P1;durP2;ratioP2;P2;SDS_P1;SDS_P2;PMS_P1;PMS_P2;Temp;Humidity;BMP_temperature;BMP_pressure;BME280_temperature;BME280_humidity;BME280_pressure;Samples;Min_cycle;Max_cycle;Signal;HPM_P1;HPM_P2
2022/11/10 00:00:17;;;;;;;0.60;0.60;;;;;;;;;;5030850;28;20176;-74
2022/11/10 00:02:43;;;;;;;0.60;0.60;;;;;;;;;;5031616;28;20237;-74
2022/11/10 00:05:09;;;;;;;0.70;0.70;;;;;;;;;;5031634;28;20180;-74
2022/11/10 00:07:35;;;;;;;0.40;0.40;;;;;;;;;;5031469;28;20180;-73
2022/11/10 00:10:01;;;;;;;0.60;0.60;;;;;;;;;;5030611;28;20226;-74
2022/11/10 00:12:27;;;;;;;0.50;0.50;;;;;;;;;;5031381;28;20207;-74
2022/11/10 00:17:38;;;;;;;0.60;0.60;;;;;;;;;;5031359;28;20255;-74
2022/11/10 00:20:04;;;;;;;0.60;0.60;;;;;;;;;;5035042;28;20199;-74
2022/11/10 00:22:31;;;;;;;0.60;0.60;;;;;;;;;;5041236;28;20195;-74
2022/11/10 00:24:57;;;;;;;0.70;0.70;;;;;;;;;;5042493;28;20263;-76
2022/11/10 00:27:22;;;;;;;0.50;0.50;;;;;;;;;;5040293;28;20616;-76
2022/11/10 00:29:48;;;;;;;0.60;0.60;;;;;;;;;;5031123;28;20726;-75
2022/11/10 00:32:14;;;;;;;0.60;0.60;;;;;;;;;;5031314;28;20191;-75
2022/11/10 00:34:40;;;;;;;0.63;0.63;;;;;;;;;;5031324;28;20215;-76
2022/11/10 00:37:06;;;;;;;0.60;0.60;;;;;;;;;;5031111;28;20172;-75
2022/11/10 00:39:32;;;;;;;0.60;0.60;;;;;;;;;;5030647;28;20184;-76
2022/11/10 00:41:58;;;;;;;0.60;0.60;;;;;;;;;;5030837;28;20206;-75
2022/11/10 00:44:24;;;;;;;0.60;0.60;;;;;;;;;;5031549;28;20200;-75
2022/11/10 00:46:50;;;;;;;0.50;0.50;;;;;;;;;;5031038;28;20180;-76
2022/11/10 00:49:16;;;;;;;0.60;0.60;;;;;;;;;;5033063;28;20219;-76
2022/11/10 00:51:42;;;;;;;0.50;0.50;;;;;;;;;;5034612;28;20260;-76
2022/11/10 00:54:08;;;;;;;0.43;0.43;;;;;;;;;;5035398;28;20262;-75
2022/11/10 00:56:34;;;;;;;0.60;0.60;;;;;;;;;;5035030;28;20180;-74
2022/11/10 00:59:00;;;;;;;0.50;0.50;;;;;;;;;;5035139;28;20555;-74
2022/11/10 01:01:26;;;;;;;0.60;0.60;;;;;;;;;;5034244;28;20200;-75
2022/11/10 01:03:52;;;;;;;0.60;0.60;;;;;;;;;;5034769;28;20617;-75
2022/11/10 01:06:19;;;;;;;0.47;0.47;;;;;;;;;;5034972;28;20183;-75
2022/11/10 01:08:46;;;;;;;0.60;0.60;;;;;;;;;;5034644;28;20208;-75
2022/11/10 01:11:16;;;;;;;0.60;0.60;;;;;;;;;;5034041;28;20235;-75
2022/11/10 01:13:43;;;;;;;0.60;0.60;;;;;;;;;;5035073;28;20179;-74
2022/11/10 01:16:12;;;;;;;0.60;0.60;;;;;;;;;;5035317;28;20202;-74
2022/11/10 01:18:38;;;;;;;0.60;0.60;;;;;;;;;;5035176;28;20265;-75
2022/11/10 01:21:04;;;;;;;0.50;0.50;;;;;;;;;;5034432;28;20653;-74
2022/11/10 01:23:30;;;;;;;0.60;0.60;;;;;;;;;;5034618;28;20216;-75
2022/11/10 01:26:00;;;;;;;0.57;0.57;;;;;;;;;;5034691;28;20522;-75
2022/11/10 01:28:26;;;;;;;0.50;0.50;;;;;;;;;;5034399;28;20196;-75
2022/11/10 01:30:59;;;;;;;0.60;0.60;;;;;;;;;;5033886;28;20684;-74
2022/11/10 01:33:26;;;;;;;0.70;0.70;;;;;;;;;;5034281;28;20183;-74
2022/11/10 01:35:51;;;;;;;0.57;0.57;;;;;;;;;;5034202;28;20645;-75
2022/11/10 01:38:17;;;;;;;0.60;0.60;;;;;;;;;;5034107;28;20183;-74
2022/11/10 01:40:44;;;;;;;0.47;0.47;;;;;;;;;;5033715;28;20657;-74
2022/11/10 01:43:10;;;;;;;0.53;0.53;;;;;;;;;;5034271;28;20180;-75
2022/11/10 01:45:48;;;;;;;0.60;0.60;;;;;;;;;;5034152;28;20186;-74
2022/11/10 01:48:19;;;;;;;0.60;0.60;;;;;;;;;;5033919;28;20636;-74
2022/11/10 01:50:47;;;;;;;0.63;0.63;;;;;;;;;;5033361;28;20226;-74
2022/11/10 01:53:16;;;;;;;0.50;0.50;;;;;;;;;;5034127;28;20180;-75
2022/11/10 01:55:43;;;;;;;0.50;0.50;;;;;;;;;;5033888;28;20182;-75
2022/11/10 01:58:10;;;;;;;0.47;0.47;;;;;;;;;;5033872;28;20542;-75
2022/11/10 02:00:36;;;;;;;0.60;0.60;;;;;;;;;;5032586;28;20545;-74
2022/11/10 02:03:05;;;;;;;0.60;0.60;;;;;;;;;;5033801;28;20187;-75
2022/11/10 02:05:31;;;;;;;0.50;0.50;;;;;;;;;;5033830;28;20176;-75
2022/11/10 02:07:57;;;;;;;0.53;0.53;;;;;;;;;;5033660;28;20266;-74
2022/11/10 02:10:23;;;;;;;0.60;0.60;;;;;;;;;;5032820;28;20772;-74
2022/11/10 02:12:49;;;;;;;0.60;0.60;;;;;;;;;;5033465;28;20246;-75
2022/11/10 02:15:16;;;;;;;0.60;0.60;;;;;;;;;;5033408;28;20211;-74
2022/11/10 02:17:43;;;;;;;0.60;0.60;;;;;;;;;;5033369;28;20222;-74
2022/11/10 02:20:10;;;;;;;0.60;0.60;;;;;;;;;;5033005;28;20318;-75
2022/11/10 02:22:36;;;;;;;0.60;0.60;;;;;;;;;;5033706;28;20178;-75
2022/11/10 02:25:03;;;;;;;0.60;0.60;;;;;;;;;;5033471;28;20183;-75
2022/11/10 02:27:29;;;;;;;0.67;0.67;;;;;;;;;;5033380;28;20257;-75
2022/11/10 02:29:56;;;;;;;0.60;0.60;;;;;;;;;;5032648;28;20212;-75
2022/11/10 02:32:22;;;;;;;0.70;0.70;;;;;;;;;;5033099;28;20198;-75
2022/11/10 02:34:48;;;;;;;0.50;0.50;;;;;;;;;;5033551;28;20227;-75
2022/11/10 02:37:14;;;;;;;0.53;0.53;;;;;;;;;;5033195;28;20182;-75
2022/11/10 02:39:40;;;;;;;0.60;0.60;;;;;;;;;;5032697;28;20183;-75
2022/11/10 02:42:09;;;;;;;0.60;0.60;;;;;;;;;;5033495;28;20192;-74
2022/11/10 02:44:35;;;;;;;0.60;0.60;;;;;;;;;;5033228;28;20226;-75
2022/11/10 02:47:01;;;;;;;0.60;0.60;;;;;;;;;;5032869;28;20176;-75
2022/11/10 02:49:27;;;;;;;0.47;0.47;;;;;;;;;;5032735;28;20215;-75
2022/11/10 02:51:53;;;;;;;0.70;0.70;;;;;;;;;;5032569;28;20200;-74
2022/11/10 02:54:20;;;;;;;0.70;0.70;;;;;;;;;;5032882;28;20183;-75
2022/11/10 02:56:46;;;;;;;0.67;0.67;;;;;;;;;;5032873;28;20183;-74
2022/11/10 02:59:12;;;;;;;0.60;0.60;;;;;;;;;;5032591;28;20171;-74
2022/11/10 03:01:38;;;;;;;0.50;0.50;;;;;;;;;;5031938;28;20553;-74
2022/11/10 03:04:04;;;;;;;0.63;0.63;;;;;;;;;;5032769;28;20184;-74
2022/11/10 03:06:30;;;;;;;0.70;0.70;;;;;;;;;;5032522;28;20641;-75
2022/11/10 03:08:56;;;;;;;0.53;0.53;;;;;;;;;;5066227;23;20262;-79
2022/11/10 03:11:22;;;;;;;1.00;1.00;;;;;;;;;;5079091;28;20198;-78
2022/11/10 03:13:48;;;;;;;0.50;0.50;;;;;;;;;;5078746;28;20199;-78
2022/11/10 03:16:14;;;;;;;0.53;0.53;;;;;;;;;;5078407;28;20186;-78
2022/11/10 03:18:40;;;;;;;0.60;0.60;;;;;;;;;;5078316;28;20632;-77
2022/11/10 03:21:06;;;;;;;0.63;0.63;;;;;;;;;;5077523;28;20209;-78
2022/11/10 03:23:33;;;;;;;0.70;0.70;;;;;;;;;;5077464;28;20194;-77
2022/11/10 03:25:59;;;;;;;0.50;0.50;;;;;;;;;;5073487;28;20252;-77
2022/11/10 03:28:25;;;;;;;0.60;0.60;;;;;;;;;;5073133;28;20202;-77
2022/11/10 03:30:51;;;;;;;0.53;0.53;;;;;;;;;;5072645;28;20764;-78
2022/11/10 03:33:16;;;;;;;0.50;0.50;;;;;;;;;;5073533;28;20228;-77
2022/11/10 03:35:42;;;;;;;0.60;0.60;;;;;;;;;;5073927;28;20185;-77
2022/11/10 03:38:08;;;;;;;0.70;0.70;;;;;;;;;;5074220;28;20580;-78
2022/11/10 03:40:34;;;;;;;0.60;0.60;;;;;;;;;;5072731;28;20195;-77
2022/11/10 03:43:00;;;;;;;0.50;0.50;;;;;;;;;;5072776;28;20253;-77
2022/11/10 03:45:26;;;;;;;0.70;0.70;;;;;;;;;;5072516;28;20175;-78
2022/11/10 03:47:52;;;;;;;0.70;0.70;;;;;;;;;;5072853;28;20171;-77
2022/11/10 03:50:18;;;;;;;0.90;0.90;;;;;;;;;;5072053;28;20656;-77
2022/11/10 03:52:45;;;;;;;0.90;0.90;;;;;;;;;;5072746;28;20550;-78
2022/11/10 03:55:12;;;;;;;0.70;0.70;;;;;;;;;;5071118;28;20170;-77
2022/11/10 03:57:38;;;;;;;0.60;0.60;;;;;;;;;;5072476;28;20201;-77
2022/11/10 04:00:05;;;;;;;0.60;0.60;;;;;;;;;;5072307;28;20623;-77
2022/11/10 04:02:31;;;;;;;0.80;0.80;;;;;;;;;;5073658;28;20205;-77
2022/11/10 04:10:26;;;;;;;0.80;0.80;;;;;;;;;;5072100;28;20224;-77
2022/11/10 04:15:42;;;;;;;0.70;0.70;;;;;;;;;;5076221;28;20592;-79
2022/11/10 04:18:25;;;;;;;0.60;0.60;;;;;;;;;;5075313;28;20201;-77
2022/11/10 04:20:54;;;;;;;0.60;0.60;;;;;;;;;;5075209;28;20194;-77
2022/11/10 04:23:28;;;;;;;0.60;0.60;;;;;;;;;;5073654;28;20619;-77
2022/11/10 04:28:38;;;;;;;0.90;0.90;;;;;;;;;;5072418;28;20182;-77
2022/11/10 04:31:04;;;;;;;0.87;0.87;;;;;;;;;;5072103;28;20514;-77
2022/11/10 04:33:30;;;;;;;1.03;1.03;;;;;;;;;;5072473;28;20632;-78
2022/11/10 04:35:56;;;;;;;0.60;0.60;;;;;;;;;;5072506;28;20177;-77
2022/11/10 04:38:22;;;;;;;0.80;0.80;;;;;;;;;;5072677;28;20175;-77
2022/11/10 04:40:48;;;;;;;0.90;0.90;;;;;;;;;;5071831;28;20218;-77
2022/11/10 04:43:14;;;;;;;0.80;0.80;;;;;;;;;;5072288;28;20179;-77
2022/11/10 04:45:40;;;;;;;0.70;0.70;;;;;;;;;;5071942;28;20193;-77
2022/11/10 04:48:06;;;;;;;0.90;0.90;;;;;;;;;;5072534;28;20174;-77
2022/11/10 04:50:32;;;;;;;0.80;0.80;;;;;;;;;;5071720;28;20222;-77
2022/11/10 04:52:58;;;;;;;0.70;0.70;;;;;;;;;;5072074;28;20177;-78
2022/11/10 04:55:24;;;;;;;0.90;0.90;;;;;;;;;;5073318;28;20257;-77
2022/11/10 04:57:50;;;;;;;0.80;0.80;;;;;;;;;;5074144;28;20754;-78
2022/11/10 05:00:16;;;;;;;0.70;0.70;;;;;;;;;;5072205;28;20541;-78
2022/11/10 05:02:42;;;;;;;0.70;0.70;;;;;;;;;;5071856;28;20179;-77
2022/11/10 05:05:08;;;;;;;0.83;0.83;;;;;;;;;;5072247;28;20186;-78
2022/11/10 05:07:34;;;;;;;0.70;0.70;;;;;;;;;;5071854;28;20546;-78
2022/11/10 05:10:00;;;;;;;0.60;0.60;;;;;;;;;;5071184;28;20214;-78
2022/11/10 05:12:26;;;;;;;0.60;0.60;;;;;;;;;;5071938;28;20683;-78
2022/11/10 05:14:52;;;;;;;0.60;0.60;;;;;;;;;;5072074;28;20183;-78
2022/11/10 05:17:18;;;;;;;0.70;0.70;;;;;;;;;;5072366;28;20223;-78
2022/11/10 05:19:46;;;;;;;0.70;0.70;;;;;;;;;;5072226;28;20273;-78
2022/11/10 05:22:12;;;;;;;0.77;0.77;;;;;;;;;;5072751;28;20203;-78
2022/11/10 05:24:38;;;;;;;0.60;0.60;;;;;;;;;;5073048;28;20243;-78
2022/11/10 05:27:04;;;;;;;0.70;0.70;;;;;;;;;;5071723;28;20201;-77
2022/11/10 05:29:30;;;;;;;0.90;0.90;;;;;;;;;;5072503;28;20678;-77
2022/11/10 05:31:55;;;;;;;0.70;0.70;;;;;;;;;;5073619;28;20209;-76
2022/11/10 05:34:22;;;;;;;0.80;0.80;;;;;;;;;;5073017;28;20178;-79
2022/11/10 05:36:48;;;;;;;0.80;0.80;;;;;;;;;;5076241;28;20197;-74
2022/11/10 05:39:14;;;;;;;0.60;0.60;;;;;;;;;;5074627;28;20205;-74
2022/11/10 05:41:40;;;;;;;0.73;0.73;;;;;;;;;;5074683;28;20198;-77
2022/11/10 05:44:06;;;;;;;0.80;0.80;;;;;;;;;;5074485;28;20182;-77
2022/11/10 05:46:32;;;;;;;0.70;0.70;;;;;;;;;;5074506;28;20549;-76
2022/11/10 05:48:58;;;;;;;0.80;0.80;;;;;;;;;;5074475;28;20202;-77
2022/11/10 05:51:24;;;;;;;0.80;0.80;;;;;;;;;;5073882;28;20615;-76
2022/11/10 05:53:49;;;;;;;0.80;0.80;;;;;;;;;;5074389;28;20585;-77
2022/11/10 05:56:15;;;;;;;0.87;0.87;;;;;;;;;;5074723;28;20170;-77
2022/11/10 05:58:41;;;;;;;0.87;0.87;;;;;;;;;;5074299;28;20258;-76
2022/11/10 06:01:07;;;;;;;0.80;0.80;;;;;;;;;;5073879;28;20194;-76
2022/11/10 06:03:33;;;;;;;0.80;0.80;;;;;;;;;;5073999;28;20240;-77
2022/11/10 06:05:59;;;;;;;0.70;0.70;;;;;;;;;;5074221;28;20494;-77
2022/11/10 06:08:25;;;;;;;0.70;0.70;;;;;;;;;;5074059;28;20206;-77
2022/11/10 06:10:51;;;;;;;0.70;0.70;;;;;;;;;;5073699;28;20241;-77
2022/11/10 06:13:17;;;;;;;0.60;0.60;;;;;;;;;;5074885;28;20216;-77
2022/11/10 06:15:43;;;;;;;0.70;0.70;;;;;;;;;;5074764;28;20179;-78
2022/11/10 06:18:09;;;;;;;0.70;0.70;;;;;;;;;;5074183;28;20607;-77
2022/11/10 06:20:35;;;;;;;0.70;0.70;;;;;;;;;;5073421;28;20191;-78
2022/11/10 06:23:05;;;;;;;0.80;0.80;;;;;;;;;;5074022;28;20166;-77
2022/11/10 06:25:32;;;;;;;0.63;0.63;;;;;;;;;;5073812;28;20182;-77
2022/11/10 06:27:58;;;;;;;0.67;0.67;;;;;;;;;;5072425;28;20174;-78
2022/11/10 06:30:25;;;;;;;0.70;0.70;;;;;;;;;;5073236;28;20210;-78
2022/11/10 06:32:50;;;;;;;0.67;0.67;;;;;;;;;;5073939;28;20361;-77
2022/11/10 06:35:17;;;;;;;0.73;0.73;;;;;;;;;;5073473;28;20206;-78
2022/11/10 06:37:43;;;;;;;0.60;0.60;;;;;;;;;;5073724;28;20275;-78
2022/11/10 06:40:11;;;;;;;0.70;0.70;;;;;;;;;;5072997;28;20667;-78
2022/11/10 06:42:37;;;;;;;0.70;0.70;;;;;;;;;;5073837;28;20193;-78
2022/11/10 06:45:03;;;;;;;0.77;0.77;;;;;;;;;;5073776;28;20175;-78
2022/11/10 06:47:29;;;;;;;0.60;0.60;;;;;;;;;;5073258;28;20284;-78
2022/11/10 06:49:55;;;;;;;0.70;0.70;;;;;;;;;;5071655;28;20309;-78
2022/11/10 06:52:21;;;;;;;0.80;0.80;;;;;;;;;;5070775;28;20282;-78
2022/11/10 06:57:50;;;;;;;0.70;0.70;;;14.40;99.90;;;;;;5072772;28;20662;-78
2022/11/10 07:00:16;;;;;;;0.60;0.60;;;;;;;;;;5072169;28;20183;-79
2022/11/10 07:02:42;;;;;;;0.70;0.70;;;;;;;;;;5073504;28;20201;-79
2022/11/10 07:05:08;;;;;;;0.50;0.50;;;;;;;;;;5073508;28;20631;-78
2022/11/10 07:07:34;;;;;;;0.57;0.57;;;;;;;;;;5073661;28;20182;-78
2022/11/10 07:10:00;;;;;;;0.50;0.50;;;;;;;;;;5072779;28;20630;-78
2022/11/10 07:12:26;;;;;;;0.50;0.50;;;;;;;;;;5062440;28;20582;-78
2022/11/10 07:14:52;;;;;;;0.40;0.40;;;;;;;;;;5064603;28;20262;-79
2022/11/10 07:17:18;;;;;;;0.40;0.40;;;;;;;;;;5062506;28;20202;-79
2022/11/10 07:19:44;;;;;;;0.50;0.50;;;;;;;;;;5062930;28;20171;-79
2022/11/10 07:22:10;;;;;;;0.40;0.40;;;;;;;;;;5063908;28;20193;-79
2022/11/10 07:24:36;;;;;;;0.37;0.37;;;;;;;;;;5065160;28;20197;-79
2022/11/10 07:27:02;;;;;;;0.43;0.43;;;;;;;;;;5061719;28;20167;-78
2022/11/10 07:29:28;;;;;;;0.30;0.30;;;;;;;;;;5061758;28;20205;-80
2022/11/10 07:31:54;;;;;;;0.30;0.30;;;;;;;;;;5072198;28;20186;-78
2022/11/10 07:34:20;;;;;;;0.40;0.40;;;;;;;;;;5073129;28;20189;-78
2022/11/10 07:36:46;;;;;;;0.40;0.40;;;;;;;;;;5061489;28;20540;-78
2022/11/10 07:39:13;;;;;;;0.30;0.30;;;;;;;;;;5064205;28;20170;-79
2022/11/10 07:41:39;;;;;;;0.50;0.50;;;;;;;;;;5062008;28;20198;-78
2022/11/10 07:44:05;;;;;;;0.50;0.50;;;;;;;;;;5056072;28;20552;-78
2022/11/10 07:46:31;;;;;;;0.60;0.60;;;;;;;;;;5060578;28;20175;-78
2022/11/10 07:48:57;;;;;;;0.40;0.40;;;;;;;;;;5063661;28;20175;-78
2022/11/10 07:51:23;;;;;;;0.30;0.30;;;;;;;;;;5063483;28;20281;-77
2022/11/10 07:53:48;;;;;;;0.57;0.57;;;;;;;;;;5070250;28;20281;-79
2022/11/10 07:56:14;;;;;;;0.50;0.50;;;;;;;;;;5076426;28;20174;-79
2022/11/10 07:58:40;;;;;;;0.60;0.60;;;;;;;;;;5075485;28;20189;-79
2022/11/10 08:01:06;;;;;;;0.40;0.40;;;;;;;;;;5065491;28;20221;-79
2022/11/10 08:03:32;;;;;;;0.60;0.60;;;;;;;;;;5073553;28;20235;-79
2022/11/10 08:05:58;;;;;;;0.50;0.50;;;;;;;;;;5076077;28;20178;-79
2022/11/10 08:08:25;;;;;;;0.50;0.50;;;;;;;;;;5078506;28;20186;-79
2022/11/10 08:10:51;;;;;;;0.50;0.50;;;;;;;;;;5089705;28;20210;-79
2022/11/10 08:13:17;;;;;;;0.50;0.50;;;;;;;;;;5089162;28;20206;-79
2022/11/10 08:15:43;;;;;;;0.50;0.50;;;;;;;;;;5088640;28;20179;-78
2022/11/10 08:18:16;;;;;;;0.60;0.60;;;;;;;;;;5076515;28;20262;-79
2022/11/10 08:20:42;;;;;;;0.50;0.50;;;;;;;;;;5073442;28;20194;-78
2022/11/10 08:23:08;;;;;;;0.60;0.60;;;;;;;;;;5072293;28;20201;-79
2022/11/10 08:25:36;;;;;;;0.50;0.50;;;;;;;;;;5064505;28;20171;-79
2022/11/10 08:28:03;;;;;;;0.50;0.50;;;;;;;;;;5064332;28;20591;-80
2022/11/10 08:30:29;;;;;;;0.50;0.50;;;;;;;;;;5060653;28;20215;-79
2022/11/10 08:32:56;;;;;;;0.60;0.60;;;;;;;;;;5064025;28;20277;-79
2022/11/10 08:35:23;;;;;;;0.50;0.50;;;;;;;;;;5063532;28;20179;-79
2022/11/10 08:37:49;;;;;;;0.57;0.57;;;;;;;;;;5058722;28;20184;-79
2022/11/10 08:40:16;;;;;;;0.60;0.60;;;;;;;;;;5066130;28;20186;-79
2022/11/10 08:42:42;;;;;;;0.50;0.50;;;;;;;;;;5065338;28;20174;-79
2022/11/10 08:45:08;;;;;;;0.60;0.60;;;;;;;;;;5071969;28;20178;-79
2022/11/10 08:47:34;;;;;;;0.60;0.60;;;;;;;;;;5072977;28;20186;-76
2022/11/10 08:50:00;;;;;;;0.57;0.57;;;;;;;;;;5074799;28;20347;-80
2022/11/10 08:52:27;;;;;;;0.50;0.50;;;;;;;;;;5078901;28;20693;-80
2022/11/10 08:54:53;;;;;;;0.60;0.60;;;;;;;;;;5075757;28;20202;-79
2022/11/10 08:57:18;;;;;;;0.70;0.70;;;;;;;;;;5089690;28;20204;-78
2022/11/10 08:59:44;;;;;;;0.50;0.50;;;;;;;;;;5088079;28;20304;-78
2022/11/10 09:02:10;;;;;;;0.50;0.50;;;;;;;;;;5089886;28;20186;-78
2022/11/10 09:04:36;;;;;;;0.50;0.50;;;;;;;;;;5089785;28;20178;-79
2022/11/10 09:07:02;;;;;;;0.60;0.60;;;;;;;;;;5093410;28;20224;-78
2022/11/10 09:09:28;;;;;;;0.60;0.60;;;;;;;;;;5089242;28;20214;-80
2022/11/10 09:11:54;;;;;;;0.60;0.60;;;;;;;;;;5093755;28;20691;-79
2022/11/10 09:14:20;;;;;;;0.50;0.50;;;9.20;99.90;;;;;;5093992;28;20636;-78
2022/11/10 09:16:46;;;;;;;0.63;0.63;;;;;;;;;;5082658;28;20277;-78
2022/11/10 09:19:12;;;;;;;0.60;0.60;;;;;;;;;;5070392;28;20171;-78
2022/11/10 09:21:38;;;;;;;0.70;0.70;;;;;;;;;;5057416;28;20195;-78
2022/11/10 09:24:04;;;;;;;0.70;0.70;;;;;;;;;;5058138;28;20175;-79
2022/11/10 09:26:30;;;;;;;0.57;0.57;;;;;;;;;;5062415;28;20191;-78
2022/11/10 09:28:56;;;;;;;0.70;0.70;;;27.00;1.00;;;;;;5056660;28;20179;-80
2022/11/10 09:31:22;;;;;;;0.60;0.60;;;24.60;1.00;;;;;;5055547;28;20195;-77
2022/11/10 09:33:48;;;;;;;0.50;0.50;;;23.30;1.00;;;;;;5057016;28;20193;-78
2022/11/10 09:36:14;;;;;;;0.60;0.60;;;;;;;;;;5060550;28;20200;-79
2022/11/10 09:38:40;;;;;;;0.47;0.47;;;;;;;;;;5077819;28;20179;-79
2022/11/10 09:41:12;;;;;;;0.50;0.50;;;;;;;;;;5077254;28;20201;-79
2022/11/10 09:43:41;;;;;;;0.67;0.67;;;;;;;;;;5077471;28;20178;-79
2022/11/10 09:46:15;;;;;;;0.60;0.60;;;;;;;;;;5077496;28;20189;-80
2022/11/10 09:48:45;;;;;;;0.50;0.50;;;;;;;;;;5081326;28;20182;-78
2022/11/10 09:51:15;;;;;;;0.40;0.40;;;;;;;;;;5089778;28;20221;-78
2022/11/10 09:53:42;;;;;;;0.50;0.50;;;;;;;;;;5093585;28;20154;-78
2022/11/10 09:56:11;;;;;;;0.60;0.60;;;;;;;;;;5088834;28;20265;-77
2022/11/10 09:58:42;;;;;;;0.60;0.60;;;;;;;;;;5076547;28;20274;-78
2022/11/10 10:01:11;;;;;;;0.40;0.40;;;;;;;;;;5077452;28;20195;-78
2022/11/10 10:03:40;;;;;;;0.40;0.40;;;;;;;;;;5077615;28;20243;-77
2022/11/10 10:06:10;;;;;;;0.30;0.30;;;;;;;;;;5074430;28;20537;-77
2022/11/10 10:08:36;;;;;;;0.50;0.50;;;;;;;;;;5074059;28;20194;-78
2022/11/10 10:11:22;;;;;;;0.50;0.50;;;;;;;;;;5073855;28;20214;-77
2022/11/10 10:14:04;;;;;;;0.40;0.40;;;;;;;;;;5068178;28;20209;-77
2022/11/10 10:16:42;;;;;;;0.40;0.40;;;;;;;;;;5077167;28;20182;-77
2022/11/10 10:19:28;;;;;;;0.60;0.60;;;;;;;;;;5075331;28;20654;-77
2022/11/10 10:22:12;;;;;;;0.60;0.60;;;;;;;;;;5069351;28;20647;-78
2022/11/10 10:24:38;;;;;;;0.40;0.40;;;;;;;;;;5074455;28;20178;-77
2022/11/10 10:27:06;;;;;;;0.50;0.50;;;;;;;;;;5077955;28;20204;-77
2022/11/10 10:29:37;;;;;;;0.50;0.50;;;;;;;;;;5073386;28;20233;-78
2022/11/10 10:32:03;;;;;;;0.53;0.53;;;;;;;;;;5074166;28;20194;-77
2022/11/10 10:34:30;;;;;;;0.50;0.50;;;;;;;;;;5079072;28;20201;-78
2022/11/10 10:36:56;;;;;;;0.60;0.60;;;;;;;;;;5075082;28;20574;-77
2022/11/10 10:39:31;;;;;;;0.50;0.50;;;;;;;;;;5074552;28;20174;-77
2022/11/10 10:41:57;;;;;;;0.47;0.47;;;;;;;;;;5073571;28;20213;-79
2022/11/10 10:44:23;;;;;;;0.43;0.43;;;;;;;;;;5074571;28;20647;-78
2022/11/10 10:46:54;;;;;;;0.50;0.50;;;;;;;;;;5074367;28;20305;-78
2022/11/10 10:49:25;;;;;;;0.50;0.50;;;;;;;;;;5074252;28;20232;-78
2022/11/10 10:52:01;;;;;;;0.40;0.40;;;;;;;;;;5074133;28;20559;-77
2022/11/10 10:54:31;;;;;;;0.30;0.30;;;;;;;;;;5080255;28;20268;-77
2022/11/10 10:57:06;;;;;;;0.30;0.30;;;;;;;;;;5078596;28;20178;-77
2022/11/10 10:59:33;;;;;;;0.37;0.37;;;;;;;;;;5073641;28;20193;-78
2022/11/10 11:01:59;;;;;;;0.30;0.30;;;;;;;;;;5073850;28;20198;-77
2022/11/10 11:04:28;;;;;;;0.30;0.30;;;;;;;;;;5073238;28;20183;-77
2022/11/10 11:06:59;;;;;;;0.33;0.33;;;;;;;;;;5072886;28;20179;-77
2022/11/10 11:09:26;;;;;;;0.30;0.30;;;;;;;;;;5072920;28;20210;-78
2022/11/10 11:12:00;;;;;;;0.40;0.40;;;;;;;;;;5072977;28;20218;-77
2022/11/10 11:14:27;;;;;;;0.40;0.40;;;;;;;;;;5073135;28;20262;-77
2022/11/10 11:17:33;;;;;;;0.30;0.30;;;;;;;;;;5073112;28;20181;-77
2022/11/10 11:19:59;;;;;;;0.30;0.30;;;;;;;;;;5004621;28;20211;-76
2022/11/10 11:22:25;;;;;;;0.30;0.30;;;;;;;;;;5011151;28;20231;-78
2022/11/10 11:24:54;;;;;;;0.30;0.30;;;;;;;;;;5050373;28;20184;-76
2022/11/10 11:27:26;;;;;;;0.50;0.50;;;;;;;;;;5094015;28;20592;-79
2022/11/10 11:29:58;;;;;;;0.37;0.37;;;;;;;;;;5092591;28;20830;-77
2022/11/10 11:32:30;;;;;;;0.40;0.40;;;;;;;;;;5092654;28;20197;-76
2022/11/10 11:35:19;;;;;;;0.40;0.40;;;;;;;;;;5092252;28;20579;-76
2022/11/10 11:37:50;;;;;;;0.33;0.33;;;;;;;;;;5092887;28;20182;-77
2022/11/10 11:40:24;;;;;;;0.40;0.40;;;;;;;;;;5092105;28;20178;-77
2022/11/10 11:42:53;;;;;;;0.33;0.33;;;;;;;;;;5083630;28;20261;-76
2022/11/10 11:45:38;;;;;;;0.40;0.40;;;;;;;;;;5072460;28;20166;-77
2022/11/10 11:48:03;;;;;;;0.40;0.40;;;;;;;;;;5072415;28;20214;-77
2022/11/10 11:50:36;;;;;;;0.40;0.40;;;;;;;;;;5071540;28;20265;-77
2022/11/10 11:53:18;;;;;;;0.40;0.40;;;;;;;;;;5072250;28;20593;-77
2022/11/10 11:55:44;;;;;;;0.40;0.40;;;;;;;;;;5072317;28;20291;-77
2022/11/10 11:58:21;;;;;;;0.50;0.50;;;;;;;;;;5072372;28;20286;-77
2022/11/10 12:01:03;;;;;;;0.30;0.30;;;;;;;;;;5070469;28;20564;-77
2022/11/10 12:03:47;;;;;;;0.40;0.40;;;;;;;;;;5072419;28;20593;-76
2022/11/10 12:06:42;;;;;;;0.37;0.37;;;;;;;;;;5073280;28;20185;-78
2022/11/10 12:09:16;;;;;;;0.40;0.40;;;;;;;;;;5000827;28;20237;-77
2022/11/10 12:12:01;;;;;;;0.30;0.30;;;;;;;;;;5071493;28;20562;-76
2022/11/10 12:14:36;;;;;;;0.30;0.30;;;;;;;;;;5071604;28;20204;-76
2022/11/10 12:17:09;;;;;;;0.30;0.30;;;;;;;;;;5071844;28;20274;-77
2022/11/10 12:19:53;;;;;;;0.37;0.37;;;;;;;;;;5071311;28;20178;-78
2022/11/10 12:22:28;;;;;;;0.40;0.40;;;;;;;;;;5066380;28;20335;-77
2022/11/10 12:24:57;;;;;;;0.40;0.40;;;;;;;;;;5072030;28;20260;-78
2022/11/10 12:27:39;;;;;;;0.30;0.30;;;;;;;;;;5072580;28;20175;-78
2022/11/10 12:30:10;;;;;;;0.30;0.30;;;;;;;;;;5071274;28;20206;-77
2022/11/10 12:32:40;;;;;;;0.40;0.40;;;;;;;;;;5071590;28;20170;-77
2022/11/10 12:35:13;;;;;;;0.30;0.30;;;;;;;;;;5072374;28;20182;-77
2022/11/10 12:37:58;;;;;;;0.40;0.40;;;;;;;;;;5072311;28;20179;-78
2022/11/10 12:40:27;;;;;;;0.37;0.37;;;;;;;;;;5071527;28;20517;-78
2022/11/10 12:42:56;;;;;;;0.43;0.43;;;;;;;;;;5073166;28;20556;-78
2022/11/10 12:45:25;;;;;;;0.40;0.40;;;;;;;;;;5077120;28;20174;-78
2022/11/10 12:47:52;;;;;;;0.40;0.40;;;;;;;;;;5077502;28;20178;-77
2022/11/10 12:50:33;;;;;;;0.20;0.20;;;;;;;;;;5075119;28;20657;-78
2022/11/10 12:53:05;;;;;;;0.30;0.30;;;;;;;;;;5076298;28;20174;-78
2022/11/10 12:55:36;;;;;;;0.23;0.23;;;;;;;;;;5076039;28;20193;-79
2022/11/10 12:58:03;;;;;;;0.40;0.40;;;;;;;;;;5066500;28;20635;-76
2022/11/10 13:00:31;;;;;;;0.30;0.30;;;;;;;;;;5055114;28;20203;-76
2022/11/10 13:02:58;;;;;;;0.40;0.40;;;;;;;;;;5058418;28;20189;-76
2022/11/10 13:05:41;;;;;;;0.30;0.30;;;;;;;;;;5075567;28;20174;-76
2022/11/10 13:08:23;;;;;;;0.30;0.30;;;;;;;;;;5075450;28;20178;-75
2022/11/10 13:11:08;;;;;;;0.40;0.40;;;;;;;;;;5073308;28;20264;-77
2022/11/10 13:13:46;;;;;;;0.30;0.30;;;;;;;;;;5075529;28;20230;-76
2022/11/10 13:16:32;;;;;;;0.30;0.30;;;;;;;;;;5075051;28;20182;-76
2022/11/10 13:18:58;;;;;;;0.30;0.30;;;;;;;;;;5075004;28;20183;-77
2022/11/10 13:21:43;;;;;;;0.33;0.33;;;;;;;;;;5074378;28;20205;-76
2022/11/10 13:24:18;;;;;;;0.33;0.33;;;;;;;;;;5075069;28;20181;-78
2022/11/10 13:26:44;;;;;;;0.30;0.30;;;;;;;;;;5059520;28;20182;-77
2022/11/10 13:29:27;;;;;;;0.40;0.40;;;;;;;;;;5055326;28;20190;-77
2022/11/10 13:31:54;;;;;;;0.40;0.40;;;;;;;;;;5054542;28;20219;-77
2022/11/10 13:34:30;;;;;;;0.40;0.40;;;;;;;;;;5054863;28;20194;-77
2022/11/10 13:36:57;;;;;;;0.33;0.33;;;;;;;;;;5054639;28;20662;-77
2022/11/10 13:39:25;;;;;;;0.40;0.40;;;;;;;;;;5054687;28;20186;-78
2022/11/10 13:41:57;;;;;;;0.30;0.30;;;;;;;;;;5065845;28;20198;-77
2022/11/10 13:44:34;;;;;;;0.30;0.30;;;;;;;;;;5068080;28;20175;-75
2022/11/10 13:47:09;;;;;;;0.47;0.47;;;;;;;;;;5056800;28;20193;-75
2022/11/10 13:49:54;;;;;;;0.30;0.30;;;;;;;;;;5053744;28;20199;-76
2022/11/10 13:52:29;;;;;;;0.30;0.30;;;;;;;;;;5054318;28;20221;-76
2022/11/10 13:55:04;;;;;;;0.30;0.30;;;;;;;;;;5059396;28;20730;-77
2022/11/10 13:57:37;;;;;;;0.30;0.30;;;;;;;;;;5070871;28;20618;-75
2022/11/10 14:00:16;;;;;;;0.30;0.30;;;;;;;;;;5073347;28;20406;-75
2022/11/10 14:02:46;;;;;;;0.40;0.40;;;;;;;;;;5074002;28;20189;-75
2022/11/10 14:05:31;;;;;;;0.40;0.40;;;;;;;;;;5073716;28;20189;-75
2022/11/10 14:08:03;;;;;;;0.30;0.30;;;;;;;;;;5073801;28;20190;-76
2022/11/10 14:10:43;;;;;;;0.40;0.40;;;23.40;1.00;;;;;;5073733;28;20698;-75
2022/11/10 14:13:15;;;;;;;0.40;0.40;;;;;;;;;;5073906;28;20173;-76
2022/11/10 14:15:43;;;;;;;0.30;0.30;;;;;;;;;;5074176;28;20662;-75
2022/11/10 14:18:21;;;;;;;0.30;0.30;;;;;;;;;;5074049;28;20178;-76
2022/11/10 14:20:52;;;;;;;0.40;0.40;;;;;;;;;;5075838;28;20220;-75
2022/11/10 14:23:20;;;;;;;0.30;0.30;;;;;;;;;;5083771;28;20175;-75
2022/11/10 14:25:53;;;;;;;0.30;0.30;;;;;;;;;;5087244;28;20218;-76
2022/11/10 14:28:30;;;;;;;0.30;0.30;;;;;;;;;;5083054;28;20183;-75
2022/11/10 14:30:56;;;;;;;0.30;0.30;;;;;;;;;;5075461;28;20263;-76
2022/11/10 14:33:24;;;;;;;0.30;0.30;;;20.50;1.00;;;;;;5074218;28;20193;-76
2022/11/10 14:35:53;;;;;;;0.40;0.40;;;19.20;1.00;;;;;;5073318;28;20701;-75
2022/11/10 14:38:27;;;;;;;0.30;0.30;;;18.80;1.00;;;;;;5073293;28;20627;-75
2022/11/10 14:40:56;;;;;;;0.30;0.30;;;18.70;1.00;;;;;;5072804;28;20224;-75
2022/11/10 14:43:29;;;;;;;0.37;0.37;;;18.50;1.00;;;;;;5072989;28;20179;-75
2022/11/10 14:45:55;;;;;;;0.40;0.40;;;18.20;1.00;;;;;;5073120;28;20243;-75
2022/11/10 14:48:26;;;;;;;0.30;0.30;;;17.90;1.00;;;;;;5073228;28;20187;-76
2022/11/10 14:50:53;;;;;;;0.40;0.40;;;17.70;1.00;;;;;;5072383;28;20632;-75
2022/11/10 14:53:30;;;;;;;0.30;0.30;;;17.30;1.00;;;;;;5073146;28;20177;-75
2022/11/10 14:55:57;;;;;;;0.40;0.40;;;17.10;1.00;;;;;;5072969;28;20180;-76
2022/11/10 14:58:32;;;;;;;0.40;0.40;;;16.80;1.00;;;;;;5072411;28;20281;-76
2022/11/10 15:01:00;;;;;;;0.40;0.40;;;16.70;1.00;;;;;;5072981;28;20222;-76